Time;durP1;ratioP1;P1;durP2;ratioP2;P2;SDS_P1;SDS_P2;PMS_P1;PMS_P2;Temp;Humidity;BMP_temperature;BMP_pressure;BME280_temperature;BME280_humidity;BME280_pressure;Samples;Min_cycle;Max_cycle;Signal;HPM_P1;HPM_P2
2021/03/31 00:00:20;;;;;;;13.10;7.55;;;;;;;5.98;88.72;101825.91;5223579;28;20078;-78
2021/03/31 00:02:58;;;;;;;13.38;6.97;;;;;;;6.28;86.65;101816.44;5219571;28;20013;-78
2021/03/31 00:05:29;;;;;;;14.82;7.35;;;;;;;6.12;86.03;101817.28;5220994;28;20066;-77
2021/03/31 00:07:59;;;;;;;12.80;7.47;;;;;;;5.91;88.65;101825.00;5224275;28;20028;-78
2021/03/31 00:10:35;;;;;;;13.85;7.32;;;;;;;5.80;88.13;101810.28;5205415;28;20041;-79
2021/03/31 00:13:05;;;;;;;13.48;7.43;;;;;;;5.70;89.64;101811.06;5210632;28;20028;-79
2021/03/31 00:15:36;;;;;;;12.63;7.30;;;;;;;5.63;90.15;101806.72;5223039;28;20494;-78
2021/03/31 00:18:08;;;;;;;17.45;7.20;;;;;;;5.75;89.88;101806.78;5219921;28;20033;-79
2021/03/31 00:20:40;;;;;;;12.65;7.30;;;;;;;5.86;89.27;101797.31;5221062;28;20406;-79
2021/03/31 00:23:13;;;;;;;14.52;7.20;;;;;;;5.82;88.39;101803.38;5218827;28;20078;-79
2021/03/31 00:25:43;;;;;;;14.75;7.70;;;;;;;5.62;88.69;101797.22;5222134;28;20483;-78
2021/03/31 00:28:14;;;;;;;16.77;7.85;;;;;;;5.69;88.95;101801.53;5204111;28;20017;-79
2021/03/31 00:30:45;;;;;;;14.68;7.25;;;;;;;5.80;89.10;101795.59;5223591;28;20033;-78
2021/03/31 00:33:16;;;;;;;11.65;7.13;;;;;;;5.88;88.05;101787.84;5228269;28;20021;-78
2021/03/31 00:35:47;;;;;;;15.50;7.82;;;;;;;5.87;88.50;101786.06;5224225;28;20119;-79
2021/03/31 00:38:18;;;;;;;15.50;8.05;;;;;;;5.95;88.15;101785.22;5223628;28;20202;-78
2021/03/31 00:40:51;;;;;;;14.02;7.32;;;;;;;5.99;86.99;101786.13;5222039;28;20521;-79
2021/03/31 00:43:23;;;;;;;13.68;6.70;;;;;;;6.02;86.43;101784.41;5205467;28;20445;-79
2021/03/31 00:45:53;;;;;;;14.48;7.45;;;;;;;5.95;86.51;101782.63;5224593;28;20103;-79
2021/03/31 00:48:24;;;;;;;14.25;7.55;;;;;;;5.85;87.14;101785.22;5224496;28;20155;-79
2021/03/31 00:50:56;;;;;;;13.85;7.63;;;;;;;5.80;87.61;101786.94;5224496;28;20017;-79
2021/03/31 00:53:33;;;;;;;14.93;7.72;;;;;;;5.86;86.68;101785.22;5220561;28;20033;-79
2021/03/31 00:56:03;;;;;;;14.93;7.90;;;;;;;5.86;86.50;101782.63;5206960;28;20392;-77
2021/03/31 00:58:35;;;;;;;11.98;7.32;;;;;;;5.71;86.73;101784.28;5215346;28;20024;-79
2021/03/31 01:01:06;;;;;;;14.23;7.47;;;;;;;5.67;87.25;101779.94;5216663;28;20029;-78
2021/03/31 01:03:36;;;;;;;15.00;8.10;;;;;;;5.57;88.25;101783.38;5211670;28;20029;-78
2021/03/31 01:06:07;;;;;;;13.07;7.95;;;;;;;5.49;88.18;101777.28;5208915;28;20074;-79
2021/03/31 01:08:37;;;;;;;14.95;8.30;;;;;;;5.59;87.77;101779.06;5205260;28;20499;-79
2021/03/31 01:11:11;;;;;;;13.98;7.50;;;;;;;5.38;88.76;101776.38;5223398;28;20021;-79
2021/03/31 01:13:55;;;;;;;14.50;7.15;;;;;;;5.49;89.43;101778.16;5222824;28;20094;-79
2021/03/31 01:16:40;;;;;;;16.17;7.47;;;;;;;5.59;87.36;101776.47;5224337;28;20027;-78
2021/03/31 01:19:29;;;;;;;14.75;7.40;;;;;;;5.58;87.60;101764.34;5220158;28;20434;-78
2021/03/31 01:22:11;;;;;;;18.98;7.70;;;;;;;5.51;87.05;101758.28;5205998;28;20134;-78
2021/03/31 01:24:59;;;;;;;15.15;7.57;;;;;;;5.40;87.90;101759.09;5224056;28;20033;-78
2021/03/31 01:28:07;;;;;;;13.70;7.78;;;;;;;5.29;89.85;101763.38;5202706;28;20024;-79
2021/03/31 01:30:57;;;;;;;13.43;7.22;;;;;;;5.10;90.27;101761.53;5221394;28;20017;-78
2021/03/31 01:34:07;;;;;;;14.48;7.05;;;;;;;5.20;89.29;101760.75;5210143;28;20028;-79
2021/03/31 01:36:39;;;;;;;14.18;7.18;;;;;;;5.19;88.96;101748.63;5221574;28;20040;-79
2021/03/31 01:39:11;;;;;;;13.57;7.18;;;;;;;5.23;89.06;101752.09;5220606;28;20029;-79
2021/03/31 01:41:43;;;;;;;13.38;7.15;;;;;;;5.37;87.69;101743.53;5205126;28;20036;-79
2021/03/31 01:44:16;;;;;;;13.43;7.28;;;;;;;5.13;89.12;101751.19;5205736;28;20120;-79
2021/03/31 01:46:53;;;;;;;18.48;8.20;;;;;;;4.96;90.04;101742.47;5223607;28;20029;-79
2021/03/31 01:49:26;;;;;;;12.82;7.25;;;;;;;5.07;90.97;101735.63;5223187;28;20105;-78
2021/03/31 01:52:02;;;;;;;12.98;7.75;;;;;;;5.19;89.76;101737.41;5201204;28;20482;-79
2021/03/31 01:54:34;;;;;;;16.65;7.75;;;;;;;5.33;88.21;101728.81;5223114;28;20126;-79
2021/03/31 01:57:05;;;;;;;17.60;8.15;;;;;;;5.13;88.04;101725.28;5223214;28;20114;-79
2021/03/31 01:59:37;;;;;;;13.63;8.18;;;;;;;5.18;89.07;101718.38;5223358;28;20262;-79
2021/03/31 02:02:10;;;;;;;13.23;7.30;;;;;;;5.28;89.07;101714.09;5222905;28;20032;-79
2021/03/31 02:04:41;;;;;;;19.13;7.57;;;;;;;5.39;87.27;101711.56;5223252;28;20047;-79
2021/03/31 02:07:12;;;;;;;17.33;8.00;;;;;;;5.53;86.30;101704.69;5223065;28;20129;-79
2021/03/31 02:09:45;;;;;;;16.08;7.38;;;;;;;5.71;85.77;101701.31;5224197;28;20039;-78
2021/03/31 02:12:23;;;;;;;16.52;7.97;;;;;;;5.79;85.88;101703.09;5223629;28;20025;-79
2021/03/31 02:14:54;;;;;;;13.90;7.20;;;;;;;5.50;86.12;101696.94;5224362;28;20031;-79
2021/03/31 02:17:26;;;;;;;17.15;7.53;;;;;;;5.42;87.30;101690.00;5223925;28;20032;-79
2021/03/31 02:19:58;;;;;;;16.60;8.40;;;;;;;5.34;88.33;101689.09;5220372;28;20055;-79
2021/03/31 02:22:29;;;;;;;22.45;8.07;;;;;;;5.39;87.76;101687.41;5223545;28;20025;-79
2021/03/31 02:25:01;;;;;;;15.90;8.27;;;;;;;5.37;87.92;101685.66;5223831;28;20414;-79
2021/03/31 02:27:31;;;;;;;18.95;8.40;;;;;;;5.40;88.19;101694.31;5223712;28;20759;-79
2021/03/31 02:30:03;;;;;;;16.67;8.18;;;;;;;5.48;87.50;101687.41;5223810;28;20041;-79
2021/03/31 02:32:35;;;;;;;15.52;8.02;;;;;;;5.43;87.25;101686.53;5223525;28;20108;-79
2021/03/31 02:35:08;;;;;;;19.75;8.07;;;;;;;5.33;88.31;101681.31;5223910;28;20016;-80
2021/03/31 02:37:40;;;;;;;17.75;8.48;;;;;;;5.28;87.75;101681.28;5205884;28;20031;-79
2021/03/31 02:40:12;;;;;;;15.63;8.02;;;;;;;5.16;88.52;101677.81;5205421;28;20029;-78
2021/03/31 02:42:45;;;;;;;14.85;8.75;;;;;;;5.05;88.73;101679.47;5222996;28;20486;-79
2021/03/31 02:45:21;;;;;;;14.23;7.68;;;;;;;5.06;88.31;101671.72;5223754;28;20041;-80
2021/03/31 02:47:54;;;;;;;19.75;7.80;;;;;;;4.86;88.98;101673.34;5223603;28;20025;-79
2021/03/31 02:50:28;;;;;;;15.02;8.10;;;;;;;4.83;89.19;101677.66;5207680;28;20104;-78
2021/03/31 02:52:59;;;;;;;15.77;8.27;;;;;;;4.86;89.96;101673.34;5222716;28;20028;-80
2021/03/31 02:55:30;;;;;;;14.98;7.82;;;;;;;4.98;89.00;101667.38;5227550;28;20020;-79
2021/03/31 02:58:00;;;;;;;17.23;8.05;;;;;;;4.82;87.58;101669.00;5210272;28;20551;-79
2021/03/31 03:00:31;;;;;;;18.50;8.05;;;;;;;4.74;89.12;101667.22;5227616;28;20032;-79
2021/03/31 03:03:03;;;;;;;14.20;6.78;;;;;;;4.93;87.80;101669.94;5226991;28;20021;-78
2021/03/31 03:05:33;;;;;;;13.52;7.28;;;;;;;4.68;88.85;101665.50;5226896;28;20112;-79
2021/03/31 03:08:04;;;;;;;16.33;6.65;;;;;;;4.52;89.03;101658.50;5226472;28;20112;-78
2021/03/31 03:10:35;;;;;;;15.88;7.75;;;;;;;4.50;91.33;101665.34;5226570;28;20033;-79
2021/03/31 03:13:08;;;;;;;18.77;7.65;;;;;;;4.61;90.49;101655.94;5226652;28;20048;-78
2021/03/31 03:15:38;;;;;;;15.68;7.68;;;;;;;4.77;90.10;101662.94;5225847;28;20021;-78
2021/03/31 03:18:09;;;;;;;14.27;7.75;;;;;;;4.94;89.11;101655.28;5208931;28;20465;-79
2021/03/31 03:20:39;;;;;;;17.00;7.63;;;;;;;4.97;88.24;101648.34;5226439;28;20028;-79
2021/03/31 03:23:10;;;;;;;19.48;8.18;;;;;;;5.03;88.09;101645.81;5223979;28;20036;-79
2021/03/31 03:25:41;;;;;;;15.77;7.13;;;;;;;5.21;86.50;101647.59;5226799;28;20053;-79
2021/03/31 03:28:18;;;;;;;12.85;6.70;;;;;;;5.14;85.16;101644.09;5208904;28;20025;-79
2021/03/31 03:30:49;;;;;;;11.65;6.10;;;;;;;4.85;85.22;101643.16;5209000;28;20021;-78
2021/03/31 03:33:20;;;;;;;13.98;6.57;;;;;;;4.72;86.50;101643.94;5222169;28;20021;-79
2021/03/31 03:35:50;;;;;;;14.18;7.45;;;;;;;4.66;87.65;101648.22;5208178;28;20090;-78
2021/03/31 03:38:23;;;;;;;14.63;7.35;;;;;;;4.57;87.54;101641.25;5228652;28;20021;-78
2021/03/31 03:40:54;;;;;;;14.48;6.85;;;;;;;4.44;88.23;101639.44;5226142;28;20025;-79
2021/03/31 03:43:24;;;;;;;13.98;7.53;;;;;;;4.31;90.06;101640.22;5225773;28;20029;-78
2021/03/31 03:45:57;;;;;;;14.07;7.95;;;;;;;4.36;90.33;101643.72;5208504;28;20433;-79
2021/03/31 03:48:28;;;;;;;15.85;7.70;;;;;;;4.22;91.96;101647.06;5222202;28;20029;-79
2021/03/31 03:50:58;;;;;;;18.15;8.63;;;;;;;4.33;92.27;101646.28;5226219;28;20055;-79
2021/03/31 03:53:29;;;;;;;15.63;7.90;;;;;;;4.31;92.18;101640.22;5226009;28;20056;-78
2021/03/31 03:56:01;;;;;;;18.00;9.00;;;;;;;4.38;91.74;101646.31;5226715;28;20436;-79
2021/03/31 03:58:32;;;;;;;18.17;9.15;;;;;;;4.40;91.50;101644.59;5226316;28;20020;-77
2021/03/31 04:01:03;;;;;;;16.63;8.50;;;;;;;4.34;90.59;101639.38;5226284;28;20027;-79
2021/03/31 04:03:34;;;;;;;15.68;8.85;;;;;;;4.29;90.66;101641.09;5226147;28;20025;-78
2021/03/31 04:06:05;;;;;;;19.27;8.88;;;;;;;4.45;91.33;101633.41;5226366;28;20035;-78
2021/03/31 04:08:36;;;;;;;19.20;8.88;;;;;;;4.45;89.82;101633.41;5222953;28;20394;-79
2021/03/31 04:11:07;;;;;;;17.55;8.45;;;;;;;4.41;89.90;101634.25;5225755;28;20100;-79
2021/03/31 04:13:37;;;;;;;15.80;8.45;;;;;;;4.48;90.49;101633.44;5206541;28;20104;-79
2021/03/31 04:16:10;;;;;;;18.10;9.05;;;;;;;4.50;90.39;101625.69;5226312;28;20059;-79
2021/03/31 04:18:41;;;;;;;15.70;8.60;;;;;;;4.46;90.47;101629.13;5225966;28;20028;-79
2021/03/31 04:21:13;;;;;;;18.52;9.02;;;;;;;4.31;90.11;101622.13;5226103;28;20687;-79
2021/03/31 04:23:43;;;;;;;20.85;9.07;;;;;;;4.22;91.05;101623.78;5207822;28;20451;-78
2021/03/31 04:26:16;;;;;;;15.38;8.35;;;;;;;4.24;91.05;101619.47;5226748;28;20041;-79
2021/03/31 04:28:46;;;;;;;18.05;8.70;;;;;;;4.15;91.59;101628.03;5226356;28;20084;-79
2021/03/31 04:31:19;;;;;;;17.98;8.35;;;;;;;4.17;90.08;101623.78;5225842;28;20108;-79
2021/03/31 04:33:51;;;;;;;16.38;8.85;;;;;;;4.10;91.05;101619.38;5225833;28;20549;-79
2021/03/31 04:36:21;;;;;;;21.25;8.65;;;;;;;4.17;91.24;101620.31;5225906;28;20032;-79
2021/03/31 04:38:51;;;;;;;16.50;8.45;;;;;;;4.02;93.15;101621.06;5225514;28;20029;-79
2021/03/31 04:41:22;;;;;;;21.77;9.35;;;;;;;3.83;93.10;101616.63;5207168;28;20024;-79
2021/03/31 04:43:52;;;;;;;16.10;8.80;;;;;;;3.97;92.15;101617.56;5224817;28;20047;-79
2021/03/31 04:46:22;;;;;;;15.35;8.80;;;;;;;3.86;93.62;101619.22;5225506;28;20021;-78
2021/03/31 04:48:52;;;;;;;19.48;9.75;;;;;;;3.68;94.35;101618.19;5225573;28;20025;-79
2021/03/31 04:51:23;;;;;;;18.30;9.18;;;;;;;3.86;93.38;101616.63;5226152;28;20020;-78
2021/03/31 04:53:53;;;;;;;20.02;9.10;;;;;;;3.95;92.91;101616.69;5222269;28;20028;-78
2021/03/31 04:56:23;;;;;;;20.67;9.00;;;;;;;4.08;92.72;101607.28;5222981;28;20039;-79
2021/03/31 04:58:54;;;;;;;21.00;10.25;;;;;;;4.11;91.68;101607.34;5224967;28;20375;-79
2021/03/31 05:01:24;;;;;;;15.40;8.52;;;;;;;4.36;90.89;101598.84;5225774;28;20032;-79
2021/03/31 05:03:54;;;;;;;19.17;9.50;;;;;;;4.30;90.68;101597.09;5224736;28;20526;-79
2021/03/31 05:06:25;;;;;;;17.73;9.65;;;;;;;4.36;91.33;101598.84;5207396;28;20681;-79
2021/03/31 05:08:55;;;;;;;20.92;9.55;;;;;;;4.47;90.73;101600.66;5225140;28;20017;-79
2021/03/31 05:11:27;;;;;;;20.05;9.40;;;;;;;4.48;90.66;101602.38;5225390;28;20017;-79
2021/03/31 05:13:57;;;;;;;20.13;9.57;;;;;;;4.64;89.79;101599.00;5220411;28;20032;-79
2021/03/31 05:16:27;;;;;;;20.77;9.52;;;;;;;4.85;90.18;101599.13;5226045;28;20025;-79
2021/03/31 05:18:58;;;;;;;18.13;9.77;;;;;;;4.87;88.94;101602.59;5225970;28;20028;-80
2021/03/31 05:21:28;;;;;;;17.88;9.30;;;;;;;5.10;88.57;101597.44;5205987;28;20528;-79
2021/03/31 05:23:58;;;;;;;21.52;9.73;;;;;;;5.02;88.36;101600.03;5226718;28;20040;-80
2021/03/31 05:26:28;;;;;;;16.20;9.35;;;;;;;5.04;89.03;101595.72;5224788;28;20032;-78
2021/03/31 05:28:59;;;;;;;17.98;9.60;;;;;;;4.98;89.93;101590.50;5225549;28;20025;-79
2021/03/31 05:31:29;;;;;;;22.08;10.10;;;;;;;4.89;89.91;101594.78;5226572;28;20048;-79
2021/03/31 05:33:59;;;;;;;19.83;10.38;;;;;;;5.05;89.39;101587.09;5225219;28;20029;-78
2021/03/31 05:36:30;;;;;;;17.40;9.43;;;;;;;5.19;88.75;101585.38;5224836;28;20021;-80
2021/03/31 05:39:00;;;;;;;20.75;10.13;;;;;;;5.18;89.68;101578.47;5223385;28;20017;-79
2021/03/31 05:41:30;;;;;;;22.88;10.88;;;;;;;5.21;89.16;101578.50;5220712;28;20032;-78
2021/03/31 05:44:03;;;;;;;20.60;10.10;;;;;;;5.32;89.00;101579.38;5225116;28;20029;-79
2021/03/31 05:46:33;;;;;;;23.58;10.73;;;;;;;5.44;89.15;101581.97;5226251;28;20037;-79
2021/03/31 05:49:04;;;;;;;23.65;10.55;;;;;;;5.42;89.78;101568.16;5226299;28;20056;-79
2021/03/31 05:51:34;;;;;;;24.55;10.80;;;;;;;5.76;88.96;101580.28;5226336;28;20082;-79
2021/03/31 05:54:05;;;;;;;21.13;11.40;;;;;;;5.55;90.88;101575.09;5207288;28;20025;-77
2021/03/31 05:56:36;;;;;;;20.15;10.88;;;;;;;5.69;91.35;101578.53;5223174;28;20025;-78
2021/03/31 05:59:07;;;;;;;22.77;12.00;;;;;;;5.73;92.82;101581.13;5255737;22;20012;-79
2021/03/31 06:01:38;;;;;;;23.50;12.05;;;;;;;5.64;93.28;101586.34;5230579;28;20256;-79
2021/03/31 06:04:08;;;;;;;20.85;11.13;;;;;;;5.97;92.19;101578.56;5230426;28;20033;-79
2021/03/31 06:06:38;;;;;;;24.20;11.55;;;;;;;6.12;91.17;101575.09;5229563;28;20043;-79
2021/03/31 06:09:09;;;;;;;20.85;11.30;;;;;;;6.35;90.46;101578.50;5208486;28;20028;-78
2021/03/31 06:11:49;;;;;;;20.90;11.43;;;;;;;6.40;91.65;101571.56;5211123;28;20123;-77
2021/03/31 06:14:28;;;;;;;20.30;11.02;;;;;;;6.56;92.07;101578.44;5208564;28;20033;-79
2021/03/31 06:17:09;;;;;;;25.48;12.15;;;;;;;6.51;93.94;101574.97;5214119;28;20033;-77
2021/03/31 06:19:42;;;;;;;23.02;11.93;;;;;;;6.58;94.13;101574.09;5191436;28;20064;-78
2021/03/31 06:22:48;;;;;;;23.98;12.70;;;;;;;6.76;93.62;101574.03;5190327;28;20018;-79
2021/03/31 06:25:22;;;;;;;26.70;12.70;;;;;;;7.03;94.35;101572.16;5207433;28;20025;-79
2021/03/31 06:27:58;;;;;;;20.73;12.10;;;;;;;7.20;93.75;101564.25;5210175;28;20467;-79
2021/03/31 06:30:29;;;;;;;28.35;13.98;;;;;;;7.54;93.15;101561.44;5184978;28;20021;-79
2021/03/31 06:33:00;;;;;;;25.80;13.95;;;;;;;7.86;92.28;101559.44;5189416;28;20418;-78
2021/03/31 06:35:30;;;;;;;27.67;14.25;;;;;;;8.09;90.65;101553.13;5208590;28;20037;-78
2021/03/31 06:38:08;;;;;;;29.88;13.82;;;;;;;8.39;88.48;101557.19;5192470;28;20022;-78
2021/03/31 06:40:48;;;;;;;25.40;13.95;;;;;;;8.59;87.66;101550.00;5215532;28;20032;-79
2021/03/31 06:46:07;;;;;;;21.15;12.82;;;;;;;8.96;87.36;101552.13;5220545;28;20033;-79
2021/03/31 06:48:47;;;;;;;25.40;12.98;;;;;;;9.15;84.73;101548.38;5188299;28;20041;-79
2021/03/31 06:51:28;;;;;;;22.67;12.95;;;;;;;9.25;84.54;101556.06;5208109;28;20432;-78
2021/03/31 06:54:17;;;;;;;26.60;13.82;;;;;;;9.46;84.73;101552.28;5203884;28;20030;-78
2021/03/31 06:56:56;;;;;;;23.45;12.55;;;;;;;9.69;83.86;101534.47;5208121;28;20021;-77
2021/03/31 06:59:30;;;;;;;23.80;13.40;;;;;;;9.85;83.82;101539.41;5203508;28;20021;-79
2021/03/31 07:02:03;;;;;;;25.52;13.52;;;;;;;9.97;83.99;101540.97;5201944;28;20033;-76
2021/03/31 07:04:34;;;;;;;24.02;13.98;;;;;;;10.22;84.53;101540.53;5201539;28;20033;-77
2021/03/31 07:07:10;;;;;;;24.95;13.10;;;;;;;11.18;82.79;101530.63;5201629;28;20025;-77
2021/03/31 07:09:41;;;;;;;26.17;12.88;;;;;;;13.14;75.85;101518.31;5210504;28;20096;-76
2021/03/31 07:12:22;;;;;;;21.33;11.90;;;;;;;15.71;67.60;101515.88;5209706;28;20109;-78
2021/03/31 07:14:53;;;;;;;21.05;11.70;;;;;;;16.97;62.04;101502.31;5197972;28;20678;-78
2021/03/31 07:17:26;;;;;;;21.38;11.65;;;;;;;17.49;60.61;101504.19;5190628;28;20076;-78
2021/03/31 07:19:56;;;;;;;21.95;12.10;;;;;;;17.49;61.19;101504.19;5203716;28;20049;-78
2021/03/31 07:22:27;;;;;;;21.88;11.23;;;;;;;19.14;58.58;101501.53;5208507;28;20029;-78
2021/03/31 07:24:57;;;;;;;19.08;11.38;;;;;;;19.23;57.43;101495.72;5204105;28;20032;-78
2021/03/31 07:27:29;;;;;;;19.20;11.55;;;;;;;20.13;56.82;101495.75;5209109;28;20045;-78
2021/03/31 07:30:11;;;;;;;18.30;11.48;;;;;;;20.59;54.91;101482.19;5209296;28;20030;-78
2021/03/31 07:32:50;;;;;;;19.88;11.73;;;;;;;20.70;53.52;101477.91;5191393;28;20026;-78
2021/03/31 07:35:22;;;;;;;19.15;11.55;;;;;;;21.95;53.08;101478.47;5210820;28;20040;-78
2021/03/31 07:37:55;;;;;;;17.10;11.02;;;;;;;21.53;53.10;101481.34;5206743;28;20433;-78
2021/03/31 07:40:26;;;;;;;18.25;11.68;;;;;;;22.46;51.65;101479.41;5211229;28;20084;-78
2021/03/31 07:43:02;;;;;;;16.92;11.07;;;;;;;22.16;51.96;101476.16;5208975;28;20029;-78
2021/03/31 07:45:39;;;;;;;19.55;11.68;;;;;;;23.28;50.32;101482.25;5207588;28;20025;-78
2021/03/31 07:48:12;;;;;;;22.77;11.82;;;;;;;24.43;49.87;101469.78;5207942;28;20030;-78
2021/03/31 07:50:42;;;;;;;16.65;11.35;;;;;;;23.47;50.67;101473.72;5210429;28;20029;-78
2021/03/31 07:53:13;;;;;;;20.35;11.52;;;;;;;23.73;50.31;101467.28;5210836;28;20017;-78
2021/03/31 07:55:47;;;;;;;18.23;11.20;;;;;;;23.41;51.67;101483.03;5210472;28;20049;-77
2021/03/31 07:58:31;;;;;;;22.48;12.02;;;;;;;22.66;53.11;101476.19;5211714;28;20036;-78
2021/03/31 08:01:07;;;;;;;20.23;11.75;;;;;;;24.07;48.45;101464.59;5207476;28;20084;-78
2021/03/31 08:03:44;;;;;;;17.50;11.75;;;;;;;23.48;49.58;101473.59;5206659;28;20483;-78
2021/03/31 08:06:29;;;;;;;19.92;11.73;;;;;;;24.11;49.81;101460.75;5209142;28;20036;-78
2021/03/31 08:09:11;;;;;;;19.77;11.25;;;;;;;24.63;47.87;101462.88;5211411;28;20025;-79
2021/03/31 08:11:41;;;;;;;21.25;11.10;;;;;;;25.47;47.66;101457.63;5211857;28;20029;-79
2021/03/31 08:14:19;;;;;;;26.40;12.23;;;;;;;26.08;47.00;101453.31;5213385;28;20036;-79
2021/03/31 08:16:50;;;;;;;18.08;11.25;;;;;;;25.49;46.86;101452.97;5211668;28;20283;-79
2021/03/31 08:19:29;;;;;;;19.92;11.80;;;;;;;27.11;44.80;101442.22;5203796;28;20108;-79
2021/03/31 08:22:18;;;;;;;19.17;11.77;;;;;;;25.85;46.06;101451.75;5201045;28;20088;-78
2021/03/31 08:24:52;;;;;;;19.20;12.00;;;;;;;27.69;43.75;101441.28;5207820;28;20111;-77
2021/03/31 08:27:23;;;;;;;19.48;11.75;;;;;;;28.31;44.06;101427.34;5210635;28;20026;-78
2021/03/31 08:29:56;;;;;;;18.35;11.93;;;;;;;27.38;45.35;101430.81;5210799;28;20539;-78
2021/03/31 08:32:27;;;;;;;19.02;12.05;;;;;;;27.00;44.95;101434.28;5209890;28;20089;-78
2021/03/31 08:34:57;;;;;;;18.65;11.82;;;;;;;26.35;45.24;101434.84;5205895;28;20052;-78
2021/03/31 08:37:29;;;;;;;19.40;12.53;;;;;;;26.75;44.07;101437.44;5209427;28;20082;-78
2021/03/31 08:40:04;;;;;;;18.77;11.77;;;;;;;26.23;44.67;101435.91;5209182;28;20618;-78
2021/03/31 08:42:34;;;;;;;29.02;12.40;;;;;;;26.30;45.65;101429.88;5192457;28;20040;-78
2021/03/31 08:45:06;;;;;;;18.35;11.75;;;;;;;26.33;44.86;101428.78;5211835;28;20029;-78
2021/03/31 08:47:37;;;;;;;20.77;11.43;;;;;;;26.78;46.83;101425.59;5208798;28;20026;-79
2021/03/31 08:50:09;;;;;;;19.10;11.88;;;;;;;26.72;46.02;101427.97;5210526;28;20029;-78
2021/03/31 08:52:39;;;;;;;21.20;11.57;;;;;;;27.42;46.19;101425.00;5206477;28;20017;-78
2021/03/31 08:55:11;;;;;;;16.27;11.13;;;;;;;27.22;45.84;101428.69;5202142;28;20030;-78
2021/03/31 08:57:42;;;;;;;18.75;11.48;;;;;;;26.71;46.63;101415.53;5202053;28;20302;-78
2021/03/31 09:00:13;;;;;;;16.13;10.50;;;;;;;26.96;45.20;101414.03;5203669;28;20017;-78
2021/03/31 09:02:43;;;;;;;18.42;11.25;;;;;;;27.13;45.43;101409.88;5200280;28;20030;-78
2021/03/31 09:05:14;;;;;;;25.45;12.15;;;;;;;26.30;46.83;101415.63;5204873;28;20025;-79
2021/03/31 09:07:45;;;;;;;17.40;11.00;;;;;;;27.70;44.55;101405.34;5201933;28;20056;-79
2021/03/31 09:10:15;;;;;;;18.30;11.43;;;;;;;26.08;48.36;101403.25;5196899;28;20067;-79
2021/03/31 09:12:45;;;;;;;19.63;11.65;;;;;;;25.63;48.62;101404.47;5196192;28;20769;-79
2021/03/31 09:15:16;;;;;;;17.50;10.80;;;;;;;26.64;47.72;101400.97;5208201;28;20565;-79
2021/03/31 09:17:47;;;;;;;15.88;11.13;;;;;;;27.19;45.85;101402.13;5200083;28;20272;-79
2021/03/31 09:20:19;;;;;;;15.50;11.30;;;;;;;26.77;47.85;101397.91;5187390;28;20475;-79
2021/03/31 09:22:49;;;;;;;16.08;10.48;;;;;;;26.74;47.75;101397.34;5205165;28;20026;-79
2021/03/31 09:25:19;;;;;;;16.65;10.90;;;;;;;25.73;49.01;101396.50;5205060;28;20036;-79
2021/03/31 09:27:50;;;;;;;16.02;9.93;;;;;;;25.62;49.84;101385.84;5201320;28;20051;-79
2021/03/31 09:30:22;;;;;;;19.73;11.07;;;;;;;24.52;52.60;101388.84;5198563;28;20539;-79
2021/03/31 09:32:59;;;;;;;15.98;10.30;;;;;;;23.89;51.94;101393.06;5200433;28;20272;-78
2021/03/31 09:35:29;;;;;;;18.70;10.50;;;;;;;23.70;50.62;101382.91;5199788;28;20506;-78
2021/03/31 09:38:02;;;;;;;17.13;10.00;;;;;;;23.17;51.65;101385.28;5207897;28;20032;-79
2021/03/31 09:40:35;;;;;;;21.27;11.40;;;;;;;23.05;52.59;101378.16;5208772;28;20271;-79
2021/03/31 09:43:05;;;;;;;18.02;10.90;;;;;;;22.70;55.07;101383.41;5186856;28;20022;-79
2021/03/31 09:45:36;;;;;;;18.25;11.50;;;;;;;23.00;55.20;101380.31;5207430;28;20036;-79
2021/03/31 09:48:07;;;;;;;17.10;11.00;;;;;;;22.79;54.24;101374.75;5205150;28;20021;-78
2021/03/31 09:50:38;;;;;;;22.02;11.13;;;;;;;22.99;54.56;101366.13;5204136;28;20037;-77
2021/03/31 09:53:08;;;;;;;18.27;11.55;;;;;;;22.87;53.31;101369.69;5203985;28;20030;-77
2021/03/31 09:55:39;;;;;;;20.83;10.82;;;;;;;23.07;53.60;101366.41;5205796;28;20120;-77
2021/03/31 09:58:10;;;;;;;19.98;11.55;;;;;;;23.33;54.65;101365.31;5204938;28;20037;-78
2021/03/31 10:00:41;;;;;;;20.88;10.85;;;;;;;23.08;54.03;101362.78;5208513;28;20564;-77
2021/03/31 10:03:12;;;;;;;17.45;9.85;;;;;;;23.13;51.33;101351.78;5206122;28;20061;-78
2021/03/31 10:05:42;;;;;;;18.40;9.30;;;;;;;23.29;51.40;101355.84;5208301;28;20407;-77
2021/03/31 10:08:21;;;;;;;15.27;9.70;;;;;;;23.38;51.23;101355.16;5208271;28;20052;-77
2021/03/31 10:10:54;;;;;;;15.32;9.00;;;;;;;23.53;49.14;101350.47;5208051;28;20025;-78
2021/03/31 10:13:25;;;;;;;15.63;8.85;;;;;;;23.56;51.54;101348.41;5207486;28;20037;-78
2021/03/31 10:16:02;;;;;;;16.25;8.32;;;;;;;23.36;50.47;101345.56;5207875;28;20078;-78
2021/03/31 10:18:33;;;;;;;16.13;8.50;;;;;;;23.66;48.87;101337.84;5204209;28;20037;-78
2021/03/31 10:21:04;;;;;;;15.60;8.50;;;;;;;23.36;44.40;101342.91;5207609;28;20042;-78
2021/03/31 10:23:37;;;;;;;16.10;8.60;;;;;;;23.22;44.19;101340.44;5188967;28;20041;-78
2021/03/31 10:26:25;;;;;;;15.88;9.10;;;;;;;23.14;43.74;101338.34;5208009;28;20556;-78
2021/03/31 10:29:00;;;;;;;16.33;8.30;;;;;;;23.16;47.50;101339.06;5206677;28;20041;-78
2021/03/31 10:31:36;;;;;;;17.08;8.77;;;;;;;23.46;47.82;101330.53;5202967;28;20021;-78
2021/03/31 10:34:09;;;;;;;13.02;8.25;;;;;;;23.35;48.00;101322.53;5188273;28;20025;-78
2021/03/31 10:53:46;;;;;;;14.82;8.27;;;;;;;23.56;45.26;101310.19;5203025;28;20044;-77
2021/03/31 10:56:16;;;;;;;15.17;8.20;;;;;;;23.38;43.04;101301.78;5201394;28;20156;-77
2021/03/31 10:58:47;;;;;;;17.77;8.32;;;;;;;23.32;44.09;101298.72;5197992;28;20101;-77
2021/03/31 11:01:17;;;;;;;14.05;7.80;;;;;;;23.11;43.20;101293.22;5185337;28;20029;-77
2021/03/31 11:03:47;;;;;;;17.05;7.93;;;;;;;23.01;43.32;101292.19;5203115;28;20034;-77
2021/03/31 11:06:18;;;;;;;13.17;8.30;;;;;;;22.89;42.79;101289.59;5204073;28;20030;-76
2021/03/31 11:08:52;;;;;;;14.95;7.22;;;;;;;22.93;45.94;101291.91;5203689;28;20290;-76
2021/03/31 11:11:22;;;;;;;10.50;6.13;;;;;;;23.09;47.05;101287.13;5206046;28;20036;-77
2021/03/31 11:13:54;;;;;;;17.15;7.10;;;;;;;23.75;45.82;101284.63;5206780;28;20467;-77
2021/03/31 11:16:26;;;;;;;12.55;6.82;;;;;;;23.62;44.17;101275.88;5190401;28;20406;-77
2021/03/31 11:19:10;;;;;;;13.80;5.57;;;;;;;23.73;44.75;101270.50;5188118;28;20025;-77
2021/03/31 11:22:06;;;;;;;12.20;5.00;;;;;;;24.10;46.19;101268.47;5205200;28;20532;-76
2021/03/31 11:27:20;;;;;;;11.52;4.90;;;;;;;24.09;41.39;101262.31;5203784;28;20059;-77
2021/03/31 11:29:50;;;;;;;10.02;4.13;;;;;;;23.76;39.77;101250.75;5205508;28;20124;-77
2021/03/31 11:32:20;;;;;;;9.85;4.55;;;;;;;23.58;39.12;101253.06;5206286;28;20650;-77
2021/03/31 11:34:51;;;;;;;8.27;3.90;;;;;;;23.51;40.56;101251.81;5203809;28;20040;-77
2021/03/31 11:37:21;;;;;;;10.27;4.72;;;;;;;23.66;39.56;101252.44;5206459;28;20045;-77
2021/03/31 11:39:51;;;;;;;10.50;4.03;;;;;;;23.64;39.87;101252.56;5206726;28;20091;-77
2021/03/31 11:42:22;;;;;;;8.03;3.70;;;;;;;23.87;41.94;101242.78;5186496;28;20375;-77
2021/03/31 11:44:52;;;;;;;7.72;3.72;;;;;;;23.59;39.23;101248.56;5203861;28;20292;-77
2021/03/31 11:47:22;;;;;;;13.43;4.97;;;;;;;23.39;38.67;101242.09;5187789;28;20072;-76
2021/03/31 11:49:53;;;;;;;10.80;4.57;;;;;;;23.65;41.69;101237.38;5206617;28;20291;-77
2021/03/31 11:52:23;;;;;;;10.70;4.40;;;;;;;23.61;40.71;101231.47;5201181;28;20639;-78
2021/03/31 11:54:53;;;;;;;7.70;4.22;;;;;;;23.34;39.28;101230.94;5204373;28;20288;-77
2021/03/31 11:57:24;;;;;;;8.50;4.25;;;;;;;23.19;40.06;101236.63;5186741;28;20049;-78
2021/03/31 11:59:54;;;;;;;12.15;4.00;;;;;;;23.21;39.64;101229.34;5215867;22;20362;-78
2021/03/31 12:02:24;;;;;;;7.90;4.10;;;;;;;23.30;39.00;101224.16;5216714;28;20390;-77
2021/03/31 12:04:54;;;;;;;10.63;5.15;;;;;;;23.14;37.93;101222.75;5217437;28;20285;-77
2021/03/31 12:07:25;;;;;;;9.13;4.53;;;;;;;23.14;37.56;101218.28;5219469;28;20040;-77